createdAt,value
2023-03-27T00:00:16.438Z,9.10
2023-03-27T00:02:47.116Z,9.10
2023-03-27T00:05:16.352Z,9.10
2023-03-27T00:07:44.800Z,9.10
2023-03-27T00:10:13.371Z,9.10
2023-03-27T00:12:44.601Z,9.00
2023-03-27T00:15:17.391Z,9.00
2023-03-27T00:17:48.245Z,9.00
2023-03-27T00:20:18.327Z,9.00
2023-03-27T00:22:48.241Z,8.90
2023-03-27T00:25:17.469Z,8.90
2023-03-27T00:27:47.381Z,8.90
2023-03-27T00:30:16.693Z,8.90
2023-03-27T00:32:45.574Z,8.80
2023-03-27T00:35:14.681Z,8.80
2023-03-27T00:37:43.155Z,8.70
2023-03-27T00:40:15.444Z,8.70
2023-03-27T00:42:44.292Z,8.60
2023-03-27T00:45:18.671Z,8.60
2023-03-27T00:47:49.270Z,8.60
2023-03-27T00:50:21.748Z,8.60
2023-03-27T00:52:56.689Z,8.50
2023-03-27T00:55:29.063Z,8.50
2023-03-27T00:58:02.680Z,8.50
2023-03-27T01:00:33.933Z,8.50
2023-03-27T01:03:06.305Z,8.50
2023-03-27T01:05:36.233Z,8.50
2023-03-27T01:08:05.604Z,8.50
2023-03-27T01:10:48.315Z,8.50
2023-03-27T01:13:34.651Z,8.50
2023-03-27T01:16:10.615Z,8.50
2023-03-27T01:18:53.977Z,8.50
2023-03-27T01:21:59.145Z,8.50
2023-03-27T01:24:54.542Z,8.50
2023-03-27T01:27:42.785Z,8.50
2023-03-27T01:30:17.537Z,8.50
2023-03-27T01:33:25.961Z,8.50
2023-03-27T01:36:20.795Z,8.50
2023-03-27T01:39:18.595Z,8.50
2023-03-27T01:41:53.193Z,8.50
2023-03-27T01:44:42.563Z,8.50
2023-03-27T01:47:21.312Z,8.50
2023-03-27T01:49:55.674Z,8.50
2023-03-27T01:52:30.524Z,8.50
2023-03-27T01:55:05.096Z,8.50
2023-03-27T01:57:49.250Z,8.50
2023-03-27T02:00:23.298Z,8.50
2023-03-27T02:02:57.449Z,8.60
2023-03-27T02:05:32.888Z,8.50
2023-03-27T02:08:08.704Z,8.60
2023-03-27T02:10:43.246Z,8.50
2023-03-27T02:13:21.612Z,8.50
2023-03-27T02:15:53.197Z,8.50
2023-03-27T02:18:27.517Z,8.50
2023-03-27T02:20:56.363Z,8.50
2023-03-27T02:23:24.948Z,8.50
2023-03-27T02:25:55.429Z,8.50
2023-03-27T02:28:41.597Z,8.50
2023-03-27T02:31:33.764Z,8.50
2023-03-27T02:34:38.473Z,8.50
2023-03-27T02:37:19.291Z,8.50
2023-03-27T02:40:15.712Z,8.50
2023-03-27T02:42:59.228Z,8.50
2023-03-27T02:45:36.952Z,8.50
2023-03-27T02:48:13.520Z,8.50
2023-03-27T02:50:48.149Z,8.50
2023-03-27T02:53:20.177Z,8.50
2023-03-27T02:55:53.862Z,8.50
2023-03-27T02:58:30.745Z,8.50
2023-03-27T03:01:09.538Z,8.50
2023-03-27T03:03:57.779Z,8.50
2023-03-27T03:06:42.372Z,8.50
2023-03-27T03:09:11.563Z,8.50
2023-03-27T03:11:47.413Z,8.50
2023-03-27T03:14:20.824Z,8.50
2023-03-27T03:16:49.539Z,8.50
2023-03-27T03:19:17.922Z,8.50
2023-03-27T03:21:50.756Z,8.50
2023-03-27T03:24:22.132Z,8.50
2023-03-27T03:26:51.154Z,8.50
2023-03-27T03:29:21.509Z,8.60
2023-03-27T03:32:05.831Z,8.60
2023-03-27T03:34:34.710Z,8.60
2023-03-27T03:37:03.311Z,8.60
2023-03-27T03:39:33.084Z,8.50
2023-03-27T03:42:01.677Z,8.50
2023-03-27T03:44:31.659Z,8.50
2023-03-27T03:47:03.358Z,8.60
2023-03-27T03:49:31.820Z,8.60
2023-03-27T03:52:03.325Z,8.60
2023-03-27T03:54:34.172Z,8.60
2023-03-27T03:57:03.207Z,8.60
2023-03-27T03:59:34.669Z,8.60
2023-03-27T04:02:29.556Z,8.60
2023-03-27T04:05:13.197Z,8.60
2023-03-27T04:07:42.499Z,8.60
2023-03-27T04:10:41.538Z,8.60
2023-03-27T04:13:36.209Z,8.60
2023-03-27T04:16:17.818Z,8.60
2023-03-27T04:18:54.579Z,8.60
2023-03-27T04:21:26.867Z,8.60
2023-03-27T04:24:02.340Z,8.60
2023-03-27T04:26:43.530Z,8.60
2023-03-27T04:29:43.565Z,8.60
2023-03-27T04:32:39.220Z,8.60
2023-03-27T04:35:46.622Z,8.60
2023-03-27T04:38:43.571Z,8.60
2023-03-27T04:41:13.265Z,8.60
2023-03-27T04:43:42.060Z,8.60
2023-03-27T04:46:10.830Z,8.60
2023-03-27T04:48:40.970Z,8.60
2023-03-27T04:51:32.498Z,8.70
2023-03-27T04:54:04.933Z,8.70
2023-03-27T04:56:35.242Z,8.70
2023-03-27T04:59:06.347Z,8.70
2023-03-27T05:01:36.414Z,8.70
2023-03-27T05:04:29.920Z,8.70
2023-03-27T05:07:10.276Z,8.80
2023-03-27T05:09:38.882Z,8.80
2023-03-27T05:12:08.940Z,8.80
2023-03-27T05:14:43.571Z,8.90
2023-03-27T05:17:29.039Z,8.90
2023-03-27T05:19:59.135Z,8.90
2023-03-27T05:22:28.017Z,9.00
2023-03-27T05:25:06.922Z,9.00
2023-03-27T05:27:35.463Z,9.00
2023-03-27T05:30:04.082Z,9.10
2023-03-27T05:32:32.901Z,9.10
2023-03-27T05:35:15.353Z,9.10
2023-03-27T05:37:48.838Z,9.10
2023-03-27T05:40:37.696Z,9.20
2023-03-27T05:43:07.086Z,9.20
2023-03-27T05:45:36.233Z,9.20
2023-03-27T05:48:05.342Z,9.20
2023-03-27T05:50:40.539Z,9.20
2023-03-27T05:53:17.306Z,9.30
2023-03-27T05:56:02.874Z,9.30
2023-03-27T05:58:38.810Z,9.30
2023-03-27T06:01:07.981Z,9.30
2023-03-27T06:03:38.801Z,9.30
2023-03-27T06:06:16.858Z,9.40
2023-03-27T06:08:47.091Z,9.40
2023-03-27T06:11:16.402Z,9.40
2023-03-27T06:13:49.529Z,9.40
2023-03-27T06:16:22.333Z,9.40
2023-03-27T06:19:17.066Z,9.40
2023-03-27T06:21:52.422Z,9.40
2023-03-27T06:24:20.849Z,9.40
2023-03-27T06:26:49.519Z,9.40
2023-03-27T06:29:18.354Z,9.40
2023-03-27T06:31:49.706Z,9.40
2023-03-27T06:34:26.392Z,9.30
2023-03-27T06:37:02.773Z,9.30
2023-03-27T06:39:37.458Z,9.30
2023-03-27T06:42:05.843Z,9.30
2023-03-27T06:44:36.779Z,9.30
2023-03-27T06:47:23.013Z,9.30
2023-03-27T06:50:11.861Z,9.30
2023-03-27T06:52:41.883Z,9.30
2023-03-27T06:55:42.822Z,9.40
2023-03-27T06:58:14.636Z,9.40
2023-03-27T07:00:43.838Z,9.40
2023-03-27T07:03:23.032Z,9.40
2023-03-27T07:06:26.793Z,9.40
2023-03-27T07:09:02.392Z,9.40
2023-03-27T07:11:32.349Z,9.40
2023-03-27T07:14:08.234Z,9.40
2023-03-27T07:16:36.964Z,9.40
2023-03-27T07:19:06.431Z,9.40
2023-03-27T07:21:37.928Z,9.40
2023-03-27T07:24:09.968Z,9.40
2023-03-27T07:26:39.767Z,9.40
2023-03-27T07:29:14.013Z,9.40
2023-03-27T07:31:56.902Z,9.40
2023-03-27T07:34:37.390Z,9.40
2023-03-27T07:37:24.866Z,9.40
2023-03-27T07:40:14.427Z,9.40
2023-03-27T07:42:51.326Z,9.40
2023-03-27T07:45:23.994Z,9.40
2023-03-27T07:48:05.312Z,9.50
2023-03-27T07:50:34.631Z,9.50
2023-03-27T07:53:04.007Z,9.60
2023-03-27T07:55:35.821Z,9.60
2023-03-27T07:58:08.121Z,9.70
2023-03-27T08:00:39.115Z,9.80
2023-03-27T08:03:14.509Z,9.80
2023-03-27T08:05:58.063Z,9.90
2023-03-27T08:08:29.485Z,10.00
2023-03-27T08:11:01.896Z,10.10
2023-03-27T08:13:41.010Z,10.20
2023-03-27T08:16:13.459Z,10.30
2023-03-27T08:18:43.393Z,10.40
2023-03-27T08:21:12.988Z,10.50
2023-03-27T08:23:42.826Z,10.50
2023-03-27T08:26:32.281Z,10.60
2023-03-27T08:29:04.705Z,10.60
2023-03-27T08:31:35.146Z,10.70
2023-03-27T08:34:06.754Z,10.70
2023-03-27T08:36:52.616Z,10.80
2023-03-27T08:39:22.988Z,10.80
2023-03-27T08:42:05.877Z,10.80
2023-03-27T08:44:55.108Z,10.90
2023-03-27T08:47:41.023Z,10.90
2023-03-27T08:50:27.156Z,10.90
2023-03-27T08:53:15.808Z,10.90
2023-03-27T08:55:46.477Z,10.90
2023-03-27T08:58:36.354Z,10.90
2023-03-27T09:01:31.238Z,10.90
2023-03-27T09:04:13.271Z,10.90
2023-03-27T09:06:53.593Z,10.90
2023-03-27T09:09:36.415Z,10.90
2023-03-27T09:12:28.872Z,10.90
2023-03-27T09:15:06.231Z,10.90
2023-03-27T09:17:39.397Z,10.90
2023-03-27T09:20:20.048Z,10.90
2023-03-27T09:22:55.031Z,10.90
2023-03-27T09:25:48.892Z,10.80
2023-03-27T09:28:50.732Z,10.90
2023-03-27T09:31:30.224Z,10.80
2023-03-27T09:34:03.911Z,10.80
2023-03-27T09:36:32.897Z,10.80
2023-03-27T09:39:07.968Z,10.80
2023-03-27T09:41:42.879Z,10.80
2023-03-27T09:44:14.372Z,10.80
2023-03-27T09:46:50.116Z,10.70
2023-03-27T09:49:20.946Z,10.80
2023-03-27T09:51:56.957Z,10.80
2023-03-27T09:55:04.803Z,10.80
2023-03-27T09:57:40.509Z,10.80
2023-03-27T10:00:27.589Z,10.90
2023-03-27T10:03:06.033Z,10.90
2023-03-27T10:05:38.940Z,11.00
2023-03-27T10:08:32.496Z,11.10
2023-03-27T10:11:20.605Z,11.10
2023-03-27T10:13:53.282Z,11.20
2023-03-27T10:16:25.058Z,11.20
2023-03-27T10:19:05.572Z,11.20
2023-03-27T10:21:43.144Z,11.30
2023-03-27T10:24:22.464Z,11.30
2023-03-27T10:27:23.578Z,11.30
2023-03-27T10:30:29.909Z,11.30
2023-03-27T10:33:31.686Z,11.30
2023-03-27T10:36:21.690Z,11.10
2023-03-27T10:38:56.647Z,11.10
2023-03-27T10:41:37.660Z,11.10
2023-03-27T10:44:15.134Z,11.00
2023-03-27T10:46:50.811Z,11.00
2023-03-27T10:49:29.084Z,11.00
2023-03-27T10:52:08.555Z,10.90
2023-03-27T10:55:09.495Z,10.90
2023-03-27T10:57:39.529Z,10.90
2023-03-27T11:00:18.659Z,10.90
2023-03-27T11:03:09.623Z,10.90
2023-03-27T11:05:42.764Z,10.90
2023-03-27T11:08:24.660Z,10.90
2023-03-27T11:10:58.194Z,10.90
2023-03-27T11:13:33.684Z,10.90
2023-03-27T11:16:16.950Z,10.90
2023-03-27T11:19:22.685Z,11.00
2023-03-27T11:22:29.963Z,11.00
2023-03-27T11:25:07.831Z,10.90
2023-03-27T11:27:41.453Z,10.90
2023-03-27T11:30:41.562Z,10.80
2023-03-27T11:33:41.847Z,10.70
2023-03-27T11:36:40.924Z,10.60
2023-03-27T11:39:42.241Z,10.50
2023-03-27T11:42:19.055Z,10.30
2023-03-27T11:44:49.990Z,10.20
2023-03-27T11:47:52.320Z,10.10
2023-03-27T11:50:39.134Z,9.90
2023-03-27T11:53:36.850Z,9.70
2023-03-27T11:56:33.221Z,9.60
2023-03-27T11:59:43.842Z,9.50
2023-03-27T13:19:11.180Z,6.50
2023-03-27T13:22:16.112Z,6.40
2023-03-27T13:25:16.074Z,6.40
2023-03-27T13:28:25.936Z,6.50
2023-03-27T13:31:04.460Z,6.50
2023-03-27T13:34:17.335Z,6.60
2023-03-27T13:36:49.151Z,6.60
2023-03-27T13:39:24.618Z,6.60
2023-03-27T13:42:09.985Z,6.60
2023-03-27T13:45:00.562Z,6.60
2023-03-27T13:48:14.499Z,6.60
2023-03-27T14:13:20.913Z,5.60
2023-03-27T14:16:35.985Z,5.50
2023-03-27T14:19:31.293Z,5.50
2023-03-27T14:22:04.996Z,5.40
2023-03-27T14:24:43.619Z,5.40
2023-03-27T14:27:23.960Z,5.40
2023-03-27T14:30:07.258Z,5.40
2023-03-27T14:32:40.089Z,5.40
2023-03-27T14:35:29.367Z,5.40
2023-03-27T14:38:09.038Z,5.40
2023-03-27T14:40:47.487Z,5.40
2023-03-27T14:43:21.431Z,5.40
2023-03-27T14:45:58.558Z,5.30
2023-03-27T14:48:32.174Z,5.30
2023-03-27T14:51:04.587Z,5.30
2023-03-27T14:53:44.679Z,5.30
2023-03-27T14:56:38.183Z,5.30
2023-03-27T14:59:20.076Z,5.30
2023-03-27T15:01:56.667Z,5.30
2023-03-27T15:04:27.944Z,5.30
2023-03-27T15:07:14.530Z,5.40
2023-03-27T15:10:22.534Z,5.40
2023-03-27T15:13:36.663Z,5.50
2023-03-27T15:16:12.046Z,5.50
2023-03-27T15:18:53.020Z,5.60
2023-03-27T15:21:34.820Z,5.70
2023-03-27T15:24:07.843Z,5.70
2023-03-27T15:26:37.051Z,5.80
2023-03-27T15:29:13.979Z,5.80
2023-03-27T15:31:44.486Z,5.90
2023-03-27T15:34:34.487Z,5.90
2023-03-27T15:37:10.237Z,6.00
2023-03-27T15:39:58.870Z,6.00
2023-03-27T15:42:33.840Z,6.00
2023-03-27T15:45:04.791Z,6.10
2023-03-27T15:47:33.376Z,6.00
2023-03-27T15:50:19.812Z,6.10
2023-03-27T15:52:50.956Z,6.10
2023-03-27T15:55:36.319Z,6.10
2023-03-27T15:58:17.561Z,6.20
2023-03-27T16:00:48.724Z,6.30
2023-03-27T16:03:22.660Z,6.30
2023-03-27T16:05:55.128Z,6.30
2023-03-27T16:08:31.012Z,6.30
2023-03-27T16:11:00.592Z,6.30
2023-03-27T16:13:34.960Z,6.30
2023-03-27T16:16:05.957Z,6.20
2023-03-27T16:18:38.150Z,6.10
2023-03-27T16:21:08.736Z,6.00
2023-03-27T16:23:38.715Z,5.90
2023-03-27T16:26:08.856Z,5.80
2023-03-27T16:28:37.354Z,5.60
2023-03-27T16:31:14.030Z,5.50
2023-03-27T16:33:45.362Z,5.40
2023-03-27T16:36:15.451Z,5.20
2023-03-27T16:38:45.552Z,5.10
2023-03-27T16:41:16.319Z,5.00
2023-03-27T16:43:45.552Z,4.90
2023-03-27T16:46:19.862Z,4.80
2023-03-27T16:48:48.723Z,4.70
2023-03-27T16:51:17.107Z,4.60
2023-03-27T16:53:47.206Z,4.50
2023-03-27T16:56:16.105Z,4.40
2023-03-27T16:58:44.531Z,4.30
2023-03-27T17:01:13.052Z,4.30
2023-03-27T17:03:41.632Z,4.20
2023-03-27T17:06:12.958Z,4.10
2023-03-27T17:08:41.409Z,4.10
2023-03-27T17:11:13.305Z,4.00
2023-03-27T17:13:43.554Z,4.00
2023-03-27T17:16:12.631Z,3.90
2023-03-27T17:18:41.323Z,3.90
2023-03-27T17:21:09.946Z,3.80
2023-03-27T17:23:38.517Z,3.80
2023-03-27T17:26:09.050Z,3.70
2023-03-27T17:28:41.791Z,3.70
2023-03-27T17:31:10.172Z,3.60
2023-03-27T17:33:38.659Z,3.60
2023-03-27T17:36:10.784Z,3.60
2023-03-27T17:38:40.037Z,3.50
2023-03-27T17:41:10.283Z,3.50
2023-03-27T17:43:40.267Z,3.50
2023-03-27T17:46:09.492Z,3.40
2023-03-27T17:48:38.194Z,3.40
2023-03-27T17:51:09.667Z,3.40
2023-03-27T17:53:39.608Z,3.30
2023-03-27T17:56:09.244Z,3.30
2023-03-27T17:58:38.175Z,3.30
2023-03-27T18:01:17.857Z,3.30
2023-03-27T18:03:46.779Z,3.30
2023-03-27T18:06:17.453Z,3.20
2023-03-27T18:08:46.950Z,3.20
2023-03-27T18:11:16.869Z,3.20
2023-03-27T18:13:51.345Z,3.20
2023-03-27T18:16:22.243Z,3.20
2023-03-27T18:18:51.133Z,3.10
2023-03-27T18:21:20.235Z,3.10
2023-03-27T18:23:48.781Z,3.10
2023-03-27T18:26:17.849Z,3.10
2023-03-27T18:28:46.363Z,3.00
2023-03-27T18:31:15.905Z,3.00
2023-03-27T18:33:46.069Z,3.00
2023-03-27T18:36:15.694Z,3.00
2023-03-27T18:38:44.206Z,3.00
2023-03-27T18:41:12.783Z,2.90
2023-03-27T18:43:41.155Z,2.90
2023-03-27T18:46:14.072Z,2.90
2023-03-27T18:48:43.178Z,2.90
2023-03-27T18:51:13.297Z,2.90
2023-03-27T18:53:41.808Z,2.90
2023-03-27T18:56:10.422Z,2.90
2023-03-27T18:58:38.943Z,2.90
2023-03-27T19:01:10.162Z,2.90
2023-03-27T19:03:39.731Z,2.90
2023-03-27T19:06:10.018Z,2.90
2023-03-27T19:08:42.355Z,2.90
2023-03-27T19:11:11.560Z,2.90
2023-03-27T19:13:58.213Z,2.80
2023-03-27T19:17:01.751Z,2.80
2023-03-27T19:19:48.843Z,2.80
2023-03-27T19:22:40.149Z,2.80
2023-03-27T19:25:28.807Z,2.80
2023-03-27T19:27:57.367Z,2.80
2023-03-27T19:30:25.890Z,2.80
2023-03-27T19:32:58.230Z,2.70
2023-03-27T19:35:27.317Z,2.70
2023-03-27T19:37:55.714Z,2.70
2023-03-27T19:40:25.637Z,2.70
2023-03-27T19:42:55.505Z,2.70
2023-03-27T19:45:24.024Z,2.70
2023-03-27T19:47:52.499Z,2.70
2023-03-27T19:50:21.273Z,2.60
2023-03-27T19:53:09.481Z,2.60
2023-03-27T19:55:38.700Z,2.60
2023-03-27T19:58:08.439Z,2.60
2023-03-27T20:00:39.628Z,2.60
2023-03-27T20:03:10.673Z,2.60
2023-03-27T20:05:41.360Z,2.60
2023-03-27T20:08:09.852Z,2.60
2023-03-27T20:10:38.350Z,2.60
2023-03-27T20:13:07.923Z,2.60
2023-03-27T20:15:36.714Z,2.60
2023-03-27T20:18:06.154Z,2.50
2023-03-27T20:20:34.951Z,2.50
2023-03-27T20:23:04.406Z,2.60
2023-03-27T20:25:33.800Z,2.60
2023-03-27T20:28:02.547Z,2.50
2023-03-27T20:30:33.280Z,2.50
2023-03-27T20:33:03.239Z,2.50
2023-03-27T20:35:33.542Z,2.50
2023-03-27T20:38:04.862Z,2.50
2023-03-27T20:40:53.314Z,2.50
2023-03-27T20:43:27.258Z,2.50
2023-03-27T20:45:59.007Z,2.40
2023-03-27T20:48:32.795Z,2.40
2023-03-27T20:51:03.032Z,2.40
2023-03-27T20:53:33.854Z,2.40
2023-03-27T20:56:04.421Z,2.40
2023-03-27T20:58:35.473Z,2.30
2023-03-27T21:01:06.937Z,2.30
2023-03-27T21:03:36.921Z,2.30
2023-03-27T21:06:06.758Z,2.30
2023-03-27T21:08:35.665Z,2.30
2023-03-27T21:11:05.021Z,2.30
2023-03-27T21:13:33.570Z,2.30
2023-03-27T21:16:02.621Z,2.30
2023-03-27T21:18:32.653Z,2.30
2023-03-27T21:21:01.149Z,2.30
2023-03-27T21:23:29.818Z,2.30
2023-03-27T21:25:58.947Z,2.30
2023-03-27T21:28:27.464Z,2.30
2023-03-27T21:30:55.920Z,2.20
2023-03-27T21:33:24.421Z,2.20
2023-03-27T21:35:54.252Z,2.20
2023-03-27T21:38:22.676Z,2.20
2023-03-27T21:40:51.103Z,2.20
2023-03-27T21:43:21.323Z,2.10
2023-03-27T21:45:50.968Z,2.10
2023-03-27T21:48:19.527Z,2.10
2023-03-27T21:50:48.229Z,2.10
2023-03-27T21:53:18.084Z,2.00
2023-03-27T21:55:47.489Z,2.10
2023-03-27T21:58:15.963Z,2.00
2023-03-27T22:00:46.553Z,2.00
2023-03-27T22:03:15.313Z,2.00
2023-03-27T22:05:47.449Z,2.00
2023-03-27T22:08:25.129Z,1.90
2023-03-27T22:10:59.093Z,1.90
2023-03-27T22:13:27.583Z,1.90
2023-03-27T22:15:56.291Z,1.80
2023-03-27T22:18:24.941Z,1.80
2023-03-27T22:20:53.298Z,1.80
2023-03-27T22:23:23.059Z,1.70
2023-03-27T22:25:54.472Z,1.70
2023-03-27T22:28:22.987Z,1.70
2023-03-27T22:30:52.557Z,1.70
2023-03-27T22:33:20.951Z,1.70
2023-03-27T22:35:50.010Z,1.70
2023-03-27T22:38:18.591Z,1.70
2023-03-27T22:40:48.295Z,1.60
2023-03-27T22:43:22.414Z,1.70
2023-03-27T22:45:52.585Z,1.60
2023-03-27T22:48:21.190Z,1.60
2023-03-27T22:50:55.572Z,1.60
2023-03-27T22:53:24.973Z,1.50
2023-03-27T22:55:57.858Z,1.50
2023-03-27T22:58:27.080Z,1.40
2023-03-27T23:00:57.117Z,1.30
2023-03-27T23:03:27.545Z,1.10
2023-03-27T23:05:56.500Z,1.00
2023-03-27T23:08:28.384Z,0.90
2023-03-27T23:10:59.793Z,0.80
2023-03-27T23:13:29.758Z,0.70
2023-03-27T23:15:58.450Z,0.60
2023-03-27T23:18:27.343Z,0.50
2023-03-27T23:20:56.458Z,0.40
2023-03-27T23:23:25.061Z,0.40
2023-03-27T23:25:53.614Z,0.30
2023-03-27T23:28:23.295Z,0.20
2023-03-27T23:30:55.674Z,0.10
2023-03-27T23:33:25.429Z,0.10
2023-03-27T23:35:54.503Z,0.00
2023-03-27T23:38:22.830Z,-0.10
2023-03-27T23:40:56.906Z,-0.20
2023-03-27T23:43:28.170Z,-0.20
2023-03-27T23:45:59.302Z,-0.30
2023-03-27T23:48:28.686Z,-0.30
2023-03-27T23:50:57.724Z,-0.30
2023-03-27T23:53:28.001Z,-0.40
2023-03-27T23:55:58.168Z,-0.40
2023-03-27T23:58:32.564Z,-0.50
